Time;durP1;ratioP1;P1;durP2;ratioP2;P2;SDS_P1;SDS_P2;PMS_P1;PMS_P2;Temp;Humidity;BMP_temperature;BMP_pressure;BME280_temperature;BME280_humidity;BME280_pressure;Samples;Min_cycle;Max_cycle;Signal;HPM_P1;HPM_P2
2023/09/26 00:01:55;;;;;;;6.00;5.47;;;17.40;99.90;;;;;;5009103;28;20573;-70
2023/09/26 00:04:21;;;;;;;7.83;5.80;;;17.40;99.90;;;;;;5023204;28;20312;-70
2023/09/26 00:06:49;;;;;;;6.03;5.37;;;17.40;99.90;;;;;;5026304;28;20640;-70
2023/09/26 00:09:16;;;;;;;5.83;5.40;;;17.40;99.90;;;;;;5026488;28;20227;-70
2023/09/26 00:11:45;;;;;;;6.23;5.77;;;17.40;99.90;;;;;;5026115;28;20213;-69
2023/09/26 00:14:12;;;;;;;5.97;5.50;;;17.40;99.90;;;;;;5026302;28;20219;-70
2023/09/26 00:16:39;;;;;;;5.97;5.47;;;17.40;99.90;;;;;;5026126;28;20204;-70
2023/09/26 00:19:06;;;;;;;5.60;5.20;;;17.40;99.90;;;;;;5025807;28;20323;-70
2023/09/26 00:21:33;;;;;;;6.50;5.10;;;17.40;99.90;;;;;;5025927;28;20649;-70
2023/09/26 00:24:00;;;;;;;5.93;5.43;;;17.40;99.90;;;;;;5025863;28;20296;-70
2023/09/26 00:26:27;;;;;;;5.97;5.47;;;17.30;99.90;;;;;;5026476;28;20208;-70
2023/09/26 00:28:55;;;;;;;5.73;5.33;;;17.30;99.90;;;;;;5026297;28;20219;-70
2023/09/26 00:31:22;;;;;;;5.43;5.03;;;17.30;99.90;;;;;;5012870;28;20328;-70
2023/09/26 00:33:48;;;;;;;5.80;5.40;;;17.30;99.90;;;;;;5023062;28;20297;-70
2023/09/26 00:36:15;;;;;;;5.73;5.30;;;17.30;99.90;;;;;;5026251;28;20684;-70
2023/09/26 00:38:42;;;;;;;5.77;5.37;;;17.30;99.90;;;;;;5025902;28;20318;-70
2023/09/26 00:41:10;;;;;;;5.97;5.47;;;17.30;99.90;;;;;;5026144;28;20263;-70
2023/09/26 00:43:37;;;;;;;6.33;5.73;;;17.20;99.90;;;;;;5025603;28;20212;-70
2023/09/26 00:46:08;;;;;;;5.87;5.23;;;17.20;99.90;;;;;;5025889;28;20274;-70
2023/09/26 00:48:38;;;;;;;6.00;5.40;;;17.20;99.90;;;;;;5026162;28;20288;-70
2023/09/26 00:51:07;;;;;;;5.87;5.47;;;17.20;99.90;;;;;;5025906;28;21022;-67
2023/09/26 00:53:38;;;;;;;5.90;5.50;;;17.20;99.90;;;;;;5025737;28;20225;-68
2023/09/26 00:56:05;;;;;;;5.90;5.40;;;17.20;99.90;;;;;;5025839;28;20735;-68
2023/09/26 00:58:32;;;;;;;6.13;5.63;;;17.20;99.90;;;;;;5025646;28;20330;-68
2023/09/26 01:00:59;;;;;;;6.87;6.23;;;17.10;99.90;;;;;;5021132;28;20882;-68
2023/09/26 01:03:28;;;;;;;6.20;5.80;;;17.10;99.90;;;;;;5025469;28;20212;-68
2023/09/26 01:05:55;;;;;;;6.60;6.00;;;17.10;99.90;;;;;;5024730;28;20704;-68
2023/09/26 01:08:22;;;;;;;6.90;5.70;;;17.10;99.90;;;;;;5016761;28;20238;-68
2023/09/26 01:10:49;;;;;;;6.73;6.23;;;17.10;99.90;;;;;;5025735;28;20201;-68
2023/09/26 01:13:16;;;;;;;6.37;5.97;;;17.10;99.90;;;;;;5025274;28;20296;-68
2023/09/26 01:15:43;;;;;;;6.30;5.80;;;17.00;99.90;;;;;;5024905;28;20296;-68
2023/09/26 01:18:11;;;;;;;6.67;5.93;;;17.00;99.90;;;;;;5025382;28;20278;-68
2023/09/26 01:20:43;;;;;;;6.70;6.13;;;17.00;99.90;;;;;;5024741;28;20296;-68
2023/09/26 01:23:11;;;;;;;6.33;5.83;;;17.10;99.90;;;;;;5025200;28;20197;-68
2023/09/26 01:25:40;;;;;;;5.80;5.40;;;17.10;99.90;;;;;;5024979;28;20303;-68
2023/09/26 01:28:08;;;;;;;6.83;6.13;;;17.10;99.90;;;;;;5024814;28;20219;-68
2023/09/26 01:30:35;;;;;;;7.20;5.83;;;17.10;99.90;;;;;;5017742;28;20264;-68
2023/09/26 01:33:03;;;;;;;6.80;6.20;;;17.10;99.90;;;;;;5022660;28;20212;-68
2023/09/26 01:35:30;;;;;;;6.77;6.27;;;17.10;99.90;;;;;;5025025;28;20211;-69
2023/09/26 01:37:57;;;;;;;6.20;5.70;;;17.00;99.90;;;;;;5025396;28;20217;-69
2023/09/26 01:40:24;;;;;;;6.70;6.30;;;17.10;99.90;;;;;;5024678;28;21032;-69
2023/09/26 01:42:53;;;;;;;6.73;6.23;;;17.10;99.90;;;;;;5025172;28;20215;-69
2023/09/26 01:45:20;;;;;;;6.83;6.13;;;17.00;99.90;;;;;;5024724;28;20284;-68
2023/09/26 01:47:49;;;;;;;6.97;6.40;;;17.10;99.90;;;;;;5025253;28;20288;-69
2023/09/26 01:50:17;;;;;;;6.63;6.03;;;17.00;99.90;;;;;;5025196;28;20296;-69
2023/09/26 01:52:44;;;;;;;6.57;6.10;;;17.00;99.90;;;;;;5024828;28;20866;-69
2023/09/26 01:55:14;;;;;;;7.00;6.50;;;17.00;99.90;;;;;;5025191;28;20197;-69
2023/09/26 01:57:41;;;;;;;6.97;6.33;;;17.00;99.90;;;;;;5025097;28;20316;-70
2023/09/26 02:00:11;;;;;;;7.00;6.50;;;17.00;99.90;;;;;;5024941;28;20237;-69
2023/09/26 02:02:39;;;;;;;6.97;6.40;;;16.90;99.90;;;;;;5024993;28;20199;-69
2023/09/26 02:05:07;;;;;;;7.37;6.77;;;16.90;99.90;;;;;;5024775;28;20220;-69
2023/09/26 02:07:34;;;;;;;6.63;6.23;;;16.90;99.90;;;;;;5024918;28;20205;-69
2023/09/26 02:10:01;;;;;;;7.27;6.77;;;16.90;99.90;;;;;;5024946;28;20300;-69
2023/09/26 02:12:29;;;;;;;7.53;6.83;;;16.80;99.90;;;;;;5024790;28;20197;-69
2023/09/26 02:14:55;;;;;;;6.67;6.17;;;16.80;99.90;;;;;;5019427;28;20233;-68
2023/09/26 02:17:24;;;;;;;7.73;6.87;;;16.80;99.90;;;;;;5005275;28;20295;-69
2023/09/26 02:19:51;;;;;;;7.27;6.77;;;16.80;99.90;;;;;;5005510;28;20229;-69
2023/09/26 02:22:18;;;;;;;7.07;6.63;;;16.70;99.90;;;;;;5005467;28;20219;-65
2023/09/26 02:24:44;;;;;;;7.30;6.70;;;16.60;99.90;;;;;;5013257;28;20205;-68
2023/09/26 02:27:11;;;;;;;7.13;6.53;;;16.70;99.90;;;;;;5024583;28;20323;-68
2023/09/26 02:29:38;;;;;;;7.47;6.77;;;16.60;99.90;;;;;;5024696;28;20299;-68
2023/09/26 02:32:05;;;;;;;7.23;6.67;;;16.60;99.90;;;;;;5020471;28;20241;-68
2023/09/26 02:34:34;;;;;;;7.33;6.73;;;16.60;99.90;;;;;;5022916;28;20212;-69
2023/09/26 02:37:01;;;;;;;7.57;6.87;;;16.60;99.90;;;;;;5022860;28;20240;-68
2023/09/26 02:39:28;;;;;;;7.17;6.47;;;16.60;99.90;;;;;;5022429;28;20239;-68
2023/09/26 02:41:57;;;;;;;7.20;6.70;;;16.60;99.90;;;;;;5022838;28;20292;-68
2023/09/26 02:44:24;;;;;;;7.90;7.20;;;16.50;99.90;;;;;;5022663;28;20212;-68
2023/09/26 02:46:52;;;;;;;7.43;6.90;;;16.50;99.90;;;;;;5023053;28;20288;-68
2023/09/26 02:49:18;;;;;;;7.03;6.43;;;16.50;99.90;;;;;;5022619;28;20288;-68
2023/09/26 02:51:47;;;;;;;7.00;6.30;;;16.50;99.90;;;;;;5022435;28;20740;-68
2023/09/26 02:54:13;;;;;;;7.90;7.30;;;16.40;99.90;;;;;;5022478;28;20245;-68
2023/09/26 02:56:40;;;;;;;7.37;6.67;;;16.40;99.90;;;;;;5022382;28;20219;-68
2023/09/26 02:59:08;;;;;;;8.17;6.80;;;16.40;99.90;;;;;;5022734;28;20231;-68
2023/09/26 03:01:35;;;;;;;7.20;6.60;;;16.40;99.90;;;;;;5007537;28;20216;-68
2023/09/26 03:04:02;;;;;;;7.57;6.97;;;16.30;99.90;;;;;;5003952;28;21129;-69
2023/09/26 03:06:29;;;;;;;8.33;7.50;;;16.30;99.90;;;;;;5010301;28;20197;-69
2023/09/26 03:08:57;;;;;;;7.00;6.27;;;16.30;99.90;;;;;;5023567;28;20213;-69
2023/09/26 03:11:24;;;;;;;7.40;6.70;;;16.30;99.90;;;;;;5019535;28;20304;-68
2023/09/26 03:13:51;;;;;;;6.90;6.40;;;16.30;99.90;;;;;;5027117;28;20793;-68
2023/09/26 03:16:18;;;;;;;7.93;7.13;;;16.20;99.90;;;;;;5026590;28;20207;-68
2023/09/26 03:18:46;;;;;;;8.07;7.40;;;16.20;99.90;;;;;;5027572;28;20209;-69
2023/09/26 03:21:13;;;;;;;7.30;6.70;;;16.20;99.90;;;;;;5027841;28;20336;-68
2023/09/26 03:23:40;;;;;;;7.57;6.80;;;16.20;99.90;;;;;;5027594;28;20303;-68
2023/09/26 03:26:13;;;;;;;8.00;6.77;;;16.20;99.90;;;;;;5027598;28;20209;-68
2023/09/26 03:28:39;;;;;;;6.80;6.40;;;16.20;99.90;;;;;;5027597;28;20193;-69
2023/09/26 03:31:08;;;;;;;7.60;7.00;;;16.10;99.90;;;;;;5027460;28;20327;-68
2023/09/26 03:33:35;;;;;;;7.67;6.97;;;16.10;99.90;;;;;;5027412;28;20213;-68
2023/09/26 03:36:02;;;;;;;8.03;7.20;;;16.10;99.90;;;;;;5027087;28;20746;-69
2023/09/26 03:38:29;;;;;;;7.60;7.00;;;16.10;99.90;;;;;;5027367;28;20212;-68
2023/09/26 03:41:00;;;;;;;10.27;7.37;;;16.10;99.90;;;;;;5027170;28;20328;-69
2023/09/26 03:43:28;;;;;;;8.07;7.50;;;16.10;99.90;;;;;;5027058;28;20961;-68
2023/09/26 03:46:01;;;;;;;8.77;7.90;;;16.10;99.90;;;;;;5027152;28;20299;-68
2023/09/26 03:48:28;;;;;;;8.57;7.77;;;16.10;99.90;;;;;;5027052;28;20692;-68
2023/09/26 03:50:55;;;;;;;8.60;7.80;;;16.10;99.90;;;;;;5026981;28;20295;-68
2023/09/26 03:53:22;;;;;;;8.17;7.47;;;16.10;99.90;;;;;;5026437;28;20734;-68
2023/09/26 03:55:54;;;;;;;9.33;8.27;;;16.10;99.90;;;;;;5027092;28;20217;-68
2023/09/26 03:58:21;;;;;;;8.13;7.53;;;16.10;99.90;;;;;;5026600;28;20839;-68
2023/09/26 04:00:49;;;;;;;8.90;8.10;;;16.10;99.90;;;;;;5026176;28;20333;-68
2023/09/26 04:03:16;;;;;;;9.43;8.63;;;16.10;99.90;;;;;;5026626;28;20296;-68
2023/09/26 04:05:46;;;;;;;9.60;8.70;;;16.10;99.90;;;;;;5026276;28;20212;-69
2023/09/26 04:08:14;;;;;;;9.57;8.47;;;16.10;99.90;;;;;;5018741;28;20430;-68
2023/09/26 04:10:40;;;;;;;9.30;8.40;;;16.10;99.90;;;;;;5026453;28;20683;-68
2023/09/26 04:13:07;;;;;;;13.77;8.17;;;16.10;99.90;;;;;;5026821;28;20209;-68
2023/09/26 04:15:38;;;;;;;12.30;8.47;;;16.10;99.90;;;;;;5025584;28;20344;-68
2023/09/26 04:18:06;;;;;;;8.97;8.00;;;16.10;99.90;;;;;;5026474;28;20197;-68
2023/09/26 04:20:36;;;;;;;12.20;8.13;;;16.00;99.90;;;;;;5026070;28;20352;-68
2023/09/26 04:23:03;;;;;;;10.97;8.60;;;16.00;99.90;;;;;;5026404;28;20216;-68
2023/09/26 04:25:31;;;;;;;9.30;8.43;;;16.00;99.90;;;;;;5026249;28;20209;-68
2023/09/26 04:27:58;;;;;;;10.13;8.23;;;16.00;99.90;;;;;;5026173;28;20209;-68
2023/09/26 04:30:24;;;;;;;9.33;8.47;;;16.00;99.90;;;;;;5025781;28;20228;-68
2023/09/26 04:32:51;;;;;;;10.00;8.27;;;16.00;99.90;;;;;;5025986;28;20215;-68
2023/09/26 04:35:20;;;;;;;9.53;8.73;;;16.00;99.90;;;;;;5025958;28;20208;-69
2023/09/26 04:37:46;;;;;;;9.27;8.37;;;15.90;99.90;;;;;;5026057;28;20295;-68
2023/09/26 04:40:14;;;;;;;9.57;8.77;;;15.90;99.90;;;;;;5025992;28;20260;-68
2023/09/26 04:42:43;;;;;;;10.83;9.03;;;15.90;99.90;;;;;;5025923;28;20205;-68
2023/09/26 04:45:10;;;;;;;10.20;9.40;;;15.90;99.90;;;;;;5025461;28;20290;-68
2023/09/26 04:47:37;;;;;;;9.07;8.27;;;15.90;99.90;;;;;;5025689;28;20287;-68
2023/09/26 04:50:05;;;;;;;8.97;7.97;;;15.90;99.90;;;;;;5025821;28;20224;-68
2023/09/26 04:52:34;;;;;;;8.77;7.97;;;15.90;99.90;;;;;;5026051;28;20221;-68
2023/09/26 04:55:01;;;;;;;8.27;7.67;;;15.90;99.90;;;;;;5025651;28;20665;-68
2023/09/26 04:57:28;;;;;;;8.03;7.33;;;15.90;99.90;;;;;;5025580;28;20291;-68
2023/09/26 04:59:55;;;;;;;8.63;7.83;;;15.90;99.90;;;;;;5025091;28;20225;-68
2023/09/26 05:02:22;;;;;;;8.17;7.57;;;15.90;99.90;;;;;;5025086;28;20294;-68
2023/09/26 05:04:49;;;;;;;9.10;8.40;;;15.90;99.90;;;;;;5024815;28;20300;-68
2023/09/26 05:07:16;;;;;;;9.00;8.30;;;15.80;99.90;;;;;;5025200;28;20200;-68
2023/09/26 05:09:44;;;;;;;9.47;8.77;;;15.80;99.90;;;;;;5025018;28;20212;-69
2023/09/26 05:12:11;;;;;;;9.80;8.90;;;15.80;99.90;;;;;;5010189;28;20573;-69
2023/09/26 05:14:38;;;;;;;8.80;8.00;;;15.80;99.90;;;;;;5005462;28;20213;-68
2023/09/26 05:17:05;;;;;;;9.83;8.83;;;15.80;99.90;;;;;;5005631;28;20237;-68
2023/09/26 05:19:32;;;;;;;12.27;10.67;;;15.80;99.90;;;;;;5005047;28;20612;-68
2023/09/26 05:21:58;;;;;;;10.90;9.80;;;15.90;99.90;;;;;;5005070;28;20646;-68
2023/09/26 05:24:25;;;;;;;15.20;11.07;;;15.90;99.90;;;;;;5005195;28;20714;-68
2023/09/26 05:26:54;;;;;;;11.07;10.13;;;15.90;99.90;;;;;;5004761;28;20309;-69
2023/09/26 05:29:20;;;;;;;11.13;10.10;;;16.00;99.90;;;;;;5004939;28;20312;-68
2023/09/26 05:31:47;;;;;;;11.97;10.47;;;15.90;99.90;;;;;;5021822;28;20311;-68
2023/09/26 05:34:14;;;;;;;11.77;10.53;;;16.00;99.90;;;;;;5024931;28;20300;-68
2023/09/26 05:36:41;;;;;;;11.93;10.80;;;16.00;99.90;;;;;;5024815;28;20300;-68
2023/09/26 05:39:08;;;;;;;11.43;10.33;;;15.90;99.90;;;;;;5024524;28;20328;-68
2023/09/26 05:41:35;;;;;;;12.53;11.00;;;15.90;99.90;;;;;;5024353;28;20283;-69
2023/09/26 05:44:03;;;;;;;12.70;10.97;;;16.00;99.90;;;;;;5024692;28;20734;-68
2023/09/26 05:46:30;;;;;;;14.77;10.70;;;15.90;99.90;;;;;;5005038;28;20213;-69
2023/09/26 05:48:57;;;;;;;12.10;10.50;;;16.00;99.90;;;;;;5004933;28;20212;-68
2023/09/26 05:51:24;;;;;;;11.93;10.80;;;15.90;99.90;;;;;;5004703;28;20716;-68
2023/09/26 05:53:51;;;;;;;12.13;11.13;;;15.90;99.90;;;;;;5004623;28;20719;-68
2023/09/26 05:56:18;;;;;;;12.13;10.93;;;16.00;99.90;;;;;;5010803;28;20807;-68
2023/09/26 05:58:46;;;;;;;12.63;11.43;;;16.00;99.90;;;;;;5024039;28;20214;-68
2023/09/26 06:01:15;;;;;;;11.83;10.83;;;16.10;99.90;;;;;;5024446;28;20331;-69
2023/09/26 06:03:41;;;;;;;12.27;11.27;;;16.10;99.90;;;;;;5024551;28;20327;-68
2023/09/26 06:06:08;;;;;;;11.97;10.80;;;16.10;99.90;;;;;;5024403;28;20872;-68
2023/09/26 06:08:35;;;;;;;11.70;10.80;;;16.10;99.90;;;;;;5024782;28;20299;-68
2023/09/26 06:11:04;;;;;;;13.00;11.90;;;16.10;99.90;;;;;;5024856;28;20218;-68
2023/09/26 06:13:31;;;;;;;12.03;10.93;;;16.10;99.90;;;;;;5024788;28;20234;-68
2023/09/26 06:15:58;;;;;;;12.00;10.90;;;16.10;99.90;;;;;;5024495;28;20213;-69
2023/09/26 06:18:28;;;;;;;13.27;10.90;;;16.10;99.90;;;;;;5024330;28;20270;-68
2023/09/26 06:20:55;;;;;;;13.10;11.80;;;16.10;99.90;;;;;;5024638;28;20230;-68
2023/09/26 06:23:22;;;;;;;12.90;11.80;;;16.10;99.90;;;;;;5024814;28;20300;-69
2023/09/26 06:25:58;;;;;;;12.00;11.00;;;16.20;99.90;;;;;;5024922;28;20205;-69
2023/09/26 06:28:25;;;;;;;11.90;10.80;;;16.20;99.90;;;;;;5024695;28;20212;-69
2023/09/26 06:30:55;;;;;;;12.60;11.40;;;16.20;99.90;;;;;;5024330;28;20355;-68
2023/09/26 06:33:22;;;;;;;13.00;11.70;;;16.20;99.90;;;;;;5024180;28;20754;-68
2023/09/26 06:35:51;;;;;;;13.40;11.60;;;16.20;99.90;;;;;;5024465;28;20304;-69
2023/09/26 06:38:17;;;;;;;12.30;11.20;;;16.30;99.90;;;;;;5026028;28;20315;-68
2023/09/26 06:40:44;;;;;;;12.80;11.60;;;16.30;99.90;;;;;;5028277;28;20419;-68
2023/09/26 06:43:11;;;;;;;12.60;11.50;;;16.30;99.90;;;;;;5028438;28;20196;-68
2023/09/26 06:45:39;;;;;;;13.10;11.90;;;16.40;99.90;;;;;;5028050;28;20239;-68
2023/09/26 06:48:07;;;;;;;12.10;11.00;;;16.40;99.90;;;;;;5028530;28;20205;-69
2023/09/26 06:50:34;;;;;;;13.17;11.87;;;16.40;99.90;;;;;;5028331;28;20291;-68
2023/09/26 06:53:02;;;;;;;13.23;12.03;;;16.50;99.90;;;;;;5028004;28;20352;-68
2023/09/26 06:55:29;;;;;;;16.33;12.20;;;16.50;99.90;;;;;;5027795;28;20299;-68
2023/09/26 06:57:57;;;;;;;13.70;12.47;;;16.60;99.90;;;;;;5008378;28;20233;-68
2023/09/26 07:00:24;;;;;;;15.80;13.47;;;16.60;99.90;;;;;;5013001;28;20671;-69
2023/09/26 07:02:54;;;;;;;13.10;12.10;;;16.60;99.90;;;;;;5027785;28;20217;-69
2023/09/26 07:05:21;;;;;;;15.63;11.97;;;16.60;99.90;;;;;;5027233;28;20215;-68
2023/09/26 07:07:48;;;;;;;15.83;12.13;;;16.70;99.90;;;;;;5026804;28;20232;-68
2023/09/26 07:10:16;;;;;;;14.30;13.07;;;16.70;99.90;;;;;;5027424;28;20304;-68
2023/09/26 07:12:44;;;;;;;14.43;12.93;;;16.80;99.90;;;;;;5027458;28;20320;-69
2023/09/26 07:15:12;;;;;;;15.33;12.33;;;16.90;99.90;;;;;;5027094;28;20282;-68
2023/09/26 07:17:39;;;;;;;13.43;12.23;;;16.90;99.90;;;;;;5027690;28;20209;-68
2023/09/26 07:20:13;;;;;;;13.53;12.23;;;17.00;99.90;;;;;;5027606;28;20217;-68
2023/09/26 07:22:40;;;;;;;13.43;12.07;;;17.10;99.90;;;;;;5027322;28;20212;-68
2023/09/26 07:25:07;;;;;;;13.53;12.27;;;17.10;99.90;;;;;;5027515;28;20307;-68
2023/09/26 07:27:35;;;;;;;12.07;10.87;;;17.20;99.90;;;;;;5027855;28;20271;-68
2023/09/26 07:30:03;;;;;;;13.50;12.07;;;17.30;99.90;;;;;;5027296;28;20245;-68
2023/09/26 07:32:30;;;;;;;12.23;10.93;;;17.40;99.90;;;;;;5027279;28;20239;-68
2023/09/26 07:34:59;;;;;;;11.90;10.83;;;17.40;99.90;;;;;;5026659;28;20216;-69
2023/09/26 07:37:26;;;;;;;12.57;11.57;;;17.50;99.90;;;;;;5027141;28;20292;-68
2023/09/26 07:39:53;;;;;;;11.67;10.50;;;17.50;99.90;;;;;;5027241;28;20209;-68
2023/09/26 07:42:20;;;;;;;13.27;11.97;;;17.60;99.90;;;;;;5026977;28;20698;-68
2023/09/26 07:44:48;;;;;;;12.33;11.17;;;17.70;99.90;;;;;;5026750;28;20484;-68
2023/09/26 07:47:15;;;;;;;10.80;9.67;;;17.80;99.90;;;;;;5027104;28;20303;-68
2023/09/26 07:49:42;;;;;;;11.27;10.37;;;17.80;99.90;;;;;;5026009;28;20207;-68
2023/09/26 07:52:08;;;;;;;10.37;9.27;;;17.90;99.90;;;;;;5027002;28;20307;-68
2023/09/26 07:54:36;;;;;;;12.53;11.23;;;18.00;99.90;;;;;;5026425;28;20679;-68
2023/09/26 07:57:03;;;;;;;11.23;10.17;;;18.00;99.90;;;;;;5026728;28;20299;-69
2023/09/26 07:59:30;;;;;;;11.23;9.47;;;18.20;99.90;;;;;;5026240;28;20235;-68
2023/09/26 08:01:59;;;;;;;10.23;9.30;;;18.20;99.90;;;;;;5026328;28;20248;-69
2023/09/26 08:04:25;;;;;;;11.33;9.00;;;18.30;99.90;;;;;;5025929;28;20209;-68
2023/09/26 08:06:55;;;;;;;10.07;9.10;;;18.30;99.90;;;;;;5026002;28;20263;-68
2023/09/26 08:09:22;;;;;;;10.50;9.63;;;18.30;99.90;;;;;;5026237;28;20209;-68
2023/09/26 08:11:49;;;;;;;9.93;8.83;;;18.40;99.90;;;;;;5026515;28;20209;-69
2023/09/26 08:14:16;;;;;;;11.07;9.53;;;18.50;99.90;;;;;;5026600;28;20216;-68
2023/09/26 08:16:43;;;;;;;10.03;9.03;;;18.50;99.90;;;;;;5026431;28;20251;-68
2023/09/26 08:19:11;;;;;;;9.77;8.97;;;18.60;99.90;;;;;;5026644;28;20256;-68
2023/09/26 08:21:39;;;;;;;9.60;8.70;;;18.60;99.90;;;;;;5025996;28;20232;-68
2023/09/26 08:24:07;;;;;;;10.47;9.20;;;18.70;99.90;;;;;;5026441;28;20312;-68
2023/09/26 08:26:34;;;;;;;10.07;8.23;;;18.70;99.90;;;;;;5026374;28;20297;-69
2023/09/26 08:29:01;;;;;;;10.47;8.90;;;18.80;99.90;;;;;;5026242;28;20220;-68
2023/09/26 08:31:28;;;;;;;11.27;9.60;;;18.90;99.90;;;;;;5011625;28;20214;-69
2023/09/26 08:33:55;;;;;;;10.23;9.17;;;19.00;99.90;;;;;;5014819;28;20269;-68
2023/09/26 08:36:23;;;;;;;11.17;9.40;;;19.00;99.90;;;;;;5025848;28;20309;-68
2023/09/26 08:38:52;;;;;;;10.53;9.57;;;19.10;99.90;;;;;;5025829;28;20726;-68
2023/09/26 08:41:19;;;;;;;9.70;8.53;;;19.20;99.90;;;;;;5025869;28;20228;-69
2023/09/26 08:43:47;;;;;;;8.73;7.93;;;19.20;99.90;;;;;;5025919;28;20734;-68
2023/09/26 08:46:14;;;;;;;8.67;7.87;;;19.30;99.90;;;;;;5026115;28;20295;-68
2023/09/26 08:48:42;;;;;;;8.33;7.67;;;19.30;99.90;;;;;;5025537;28;20209;-68
2023/09/26 08:51:08;;;;;;;8.50;7.67;;;19.40;99.90;;;;;;5025461;28;20205;-69
2023/09/26 08:53:37;;;;;;;8.80;8.03;;;19.50;99.90;;;;;;5024852;28;20327;-68
2023/09/26 08:56:05;;;;;;;9.57;8.57;;;19.50;99.90;;;;;;5025101;28;20718;-69
2023/09/26 08:58:33;;;;;;;9.83;8.73;;;19.50;99.90;;;;;;5025442;28;20324;-68
2023/09/26 09:01:00;;;;;;;8.67;7.67;;;19.60;99.90;;;;;;5024279;28;20236;-68
2023/09/26 09:03:27;;;;;;;8.60;7.80;;;19.70;99.90;;;;;;5025070;28;20877;-68
2023/09/26 09:05:54;;;;;;;8.13;7.40;;;19.70;99.90;;;;;;5025519;28;20205;-69
2023/09/26 09:08:22;;;;;;;9.77;7.80;;;19.90;99.90;;;;;;5025226;28;20212;-68
2023/09/26 09:10:51;;;;;;;8.23;7.53;;;20.00;99.90;;;;;;5024977;28;20295;-68
2023/09/26 09:13:29;;;;;;;10.87;7.53;;;20.00;99.90;;;;;;5025234;28;20223;-68
2023/09/26 09:16:10;;;;;;;8.17;7.47;;;20.10;99.90;;;;;;5025161;28;20254;-68
2023/09/26 09:18:38;;;;;;;9.27;8.00;;;20.20;99.90;;;;;;5025554;28;20299;-68
2023/09/26 09:21:27;;;;;;;11.33;7.80;;;20.30;99.90;;;;;;5024846;28;20896;-68
2023/09/26 09:23:58;;;;;;;7.80;7.00;;;20.30;99.90;;;;;;5020457;28;20212;-69
2023/09/26 09:26:30;;;;;;;7.07;6.47;;;20.40;99.90;;;;;;5024749;28;20232;-68
2023/09/26 09:28:59;;;;;;;7.63;6.80;;;20.40;99.90;;;;;;5024865;28;20240;-68
2023/09/26 09:31:27;;;;;;;7.30;6.70;;;20.50;99.90;;;;;;5024910;28;20220;-69
2023/09/26 09:33:56;;;;;;;7.20;6.07;;;20.50;99.90;;;;;;5024727;28;20232;-68
2023/09/26 09:36:23;;;;;;;8.40;6.30;;;20.60;99.90;;;;;;5024945;28;20324;-68
2023/09/26 09:38:49;;;;;;;6.97;6.38;;;20.70;99.90;;;;;;5024670;28;20256;-68
2023/09/26 09:41:16;;;;;;;6.18;5.65;;;20.70;99.90;;;;;;5024573;28;20999;-69
2023/09/26 09:43:45;;;;;;;6.88;6.25;;;20.80;99.90;;;;;;5024351;28;20321;-69
2023/09/26 09:46:13;;;;;;;7.57;6.07;;;20.90;99.90;;;;;;5024071;28;20309;-69
2023/09/26 09:48:44;;;;;;;6.47;5.85;;;21.10;99.90;;;;;;5024920;28;20208;-69
2023/09/26 09:51:13;;;;;;;6.47;5.88;;;21.10;99.90;;;;;;5024763;28;20213;-69
2023/09/26 09:53:42;;;;;;;6.82;6.25;;;21.20;99.90;;;;;;5024646;28;20240;-69
2023/09/26 09:56:12;;;;;;;6.13;5.63;;;21.30;99.90;;;;;;5024879;28;20212;-69
2023/09/26 09:58:43;;;;;;;6.45;5.90;;;21.40;99.90;;;;;;5024396;28;20208;-69
2023/09/26 10:01:14;;;;;;;9.25;5.78;;;21.50;99.90;;;;;;5024705;28;20655;-69
2023/09/26 10:03:41;;;;;;;7.07;5.45;;;21.60;99.90;;;;;;5024669;28;20233;-69
2023/09/26 10:06:09;;;;;;;6.85;6.35;;;21.70;99.90;;;;;;5024211;28;20354;-69
2023/09/26 10:08:39;;;;;;;14.20;6.28;;;21.80;99.90;;;;;;5024229;28;20727;-69
2023/09/26 10:11:07;;;;;;;5.38;4.97;;;21.90;99.90;;;;;;5024644;28;20295;-69
2023/09/26 10:13:35;;;;;;;11.27;5.95;;;22.10;99.90;;;;;;5026891;28;20204;-69
2023/09/26 10:16:05;;;;;;;5.78;5.15;;;22.20;99.90;;;;;;5028298;28;20212;-69
2023/09/26 10:18:37;;;;;;;6.13;5.53;;;22.30;99.90;;;;;;5028604;28;20208;-69
2023/09/26 10:21:04;;;;;;;5.35;4.78;;;22.30;99.90;;;;;;5028469;28;20709;-69
2023/09/26 10:23:31;;;;;;;7.95;5.55;;;22.40;99.90;;;;;;5028200;28;20215;-69
2023/09/26 10:26:03;;;;;;;5.65;5.00;;;22.40;99.90;;;;;;5028133;28;20926;-69
2023/09/26 10:28:30;;;;;;;5.15;4.65;;;22.50;99.90;;;;;;5028016;28;20216;-69
2023/09/26 10:30:58;;;;;;;5.30;4.80;;;22.50;99.90;;;;;;5028328;28;20223;-69
2023/09/26 10:33:29;;;;;;;4.90;4.55;;;22.60;99.90;;;;;;5028411;28;20220;-69
2023/09/26 10:36:02;;;;;;;8.88;5.32;;;22.70;99.90;;;;;;5028411;28;20228;-69
2023/09/26 10:38:29;;;;;;;5.43;5.05;;;22.80;99.90;;;;;;5028329;28;21086;-69
2023/09/26 10:40:56;;;;;;;7.28;5.80;;;22.80;99.90;;;;;;5028094;28;20587;-69
2023/09/26 10:43:23;;;;;;;6.43;4.80;;;22.90;99.90;;;;;;5027803;28;20703;-69
2023/09/26 10:45:50;;;;;;;5.30;4.90;;;23.10;99.90;;;;;;5027513;28;20679;-69
2023/09/26 10:48:21;;;;;;;5.45;5.05;;;23.20;99.90;;;;;;5028132;28;20297;-69
2023/09/26 10:50:51;;;;;;;5.53;4.82;;;23.20;99.90;;;;;;5027753;28;20778;-69
2023/09/26 10:53:20;;;;;;;5.45;5.03;;;23.30;99.90;;;;;;5027668;28;20805;-69
2023/09/26 10:55:47;;;;;;;5.68;5.15;;;23.50;99.90;;;;;;5027932;28;20237;-69
2023/09/26 10:58:21;;;;;;;6.22;4.78;;;23.50;99.90;;;;;;5027506;28;20292;-70
2023/09/26 11:00:52;;;;;;;12.85;5.38;;;23.70;99.90;;;;;;5027359;28;20224;-69
2023/09/26 11:03:19;;;;;;;7.05;4.53;;;23.80;99.90;;;;;;5027708;28;20252;-69
2023/09/26 11:05:46;;;;;;;6.10;5.50;;;23.90;99.90;;;;;;5027494;28;20325;-69
2023/09/26 11:08:13;;;;;;;6.78;4.95;;;24.00;99.90;;;;;;5027419;28;20240;-69
2023/09/26 11:10:46;;;;;;;6.07;5.47;;;24.10;99.90;;;;;;5027292;28;20220;-69
2023/09/26 11:13:14;;;;;;;5.63;5.13;;;24.10;99.90;;;;;;5027277;28;20929;-69
2023/09/26 11:15:44;;;;;;;5.38;4.88;;;24.30;99.90;;;;;;5026940;28;20469;-69
2023/09/26 11:18:12;;;;;;;5.97;5.22;;;24.40;99.90;;;;;;5026938;28;20300;-70
2023/09/26 11:20:40;;;;;;;8.90;5.32;;;24.40;99.90;;;;;;5027239;28;20208;-70
2023/09/26 11:23:08;;;;;;;6.07;5.47;;;24.60;99.90;;;;;;5027782;28;20325;-69
2023/09/26 11:25:35;;;;;;;6.30;5.75;;;24.60;99.90;;;;;;5026162;28;20209;-70
2023/09/26 11:28:05;;;;;;;5.88;5.38;;;24.70;99.90;;;;;;5027640;28;20262;-69
2023/09/26 11:30:32;;;;;;;5.75;5.10;;;24.80;99.90;;;;;;5027024;28;20953;-69
2023/09/26 11:32:59;;;;;;;7.65;4.85;;;24.90;99.90;;;;;;5027211;28;20300;-69
2023/09/26 11:35:26;;;;;;;5.35;4.90;;;25.00;99.90;;;;;;5027133;28;20241;-69
2023/09/26 11:37:55;;;;;;;6.22;5.40;;;25.00;99.90;;;;;;5027551;28;20215;-69
2023/09/26 11:40:23;;;;;;;5.72;5.25;;;25.10;99.90;;;;;;5027354;28;20445;-69
2023/09/26 11:42:51;;;;;;;6.25;4.95;;;25.20;99.90;;;;;;5027380;28;20264;-69
2023/09/26 11:45:24;;;;;;;6.55;4.90;;;25.30;99.90;;;;;;5027292;28;20212;-69
2023/09/26 11:47:53;;;;;;;5.50;5.03;;;25.50;99.90;;;;;;5027292;28;20300;-69
2023/09/26 11:50:20;;;;;;;5.65;4.65;;;25.60;99.90;;;;;;5026829;28;20323;-69
2023/09/26 11:52:48;;;;;;;6.07;5.00;;;25.70;99.90;;;;;;5027033;28;20209;-70
2023/09/26 11:55:17;;;;;;;5.60;5.10;;;25.80;99.90;;;;;;5027100;28;20339;-70
2023/09/26 11:57:44;;;;;;;7.15;5.15;;;25.90;99.90;;;;;;5026927;28;20211;-69
2023/09/26 12:00:15;;;;;;;4.60;4.22;;;25.90;99.90;;;;;;5026239;28;20675;-69
2023/09/26 12:02:44;;;;;;;4.80;4.40;;;26.00;99.90;;;;;;5026688;28;20220;-69
2023/09/26 12:05:11;;;;;;;5.07;4.40;;;26.00;99.90;;;;;;5026880;28;20292;-70
2023/09/26 12:07:39;;;;;;;6.53;5.00;;;26.00;99.90;;;;;;5026733;28;20213;-69
2023/09/26 12:10:07;;;;;;;5.88;5.07;;;26.10;99.90;;;;;;5026974;28;20294;-70
2023/09/26 12:12:34;;;;;;;12.95;4.45;;;26.10;99.90;;;;;;5026650;28;20216;-69
2023/09/26 12:15:16;;;;;;;6.03;4.53;;;26.30;99.90;;;;;;5026554;28;20595;-70
2023/09/26 12:17:45;;;;;;;13.95;5.25;;;26.40;99.90;;;;;;5026700;28;20251;-69
2023/09/26 12:20:12;;;;;;;5.18;4.68;;;26.40;99.90;;;;;;5026159;28;20681;-70
2023/09/26 12:22:39;;;;;;;5.97;4.72;;;26.60;99.90;;;;;;5026377;28;20299;-70
2023/09/26 12:25:07;;;;;;;8.82;4.30;;;26.70;99.90;;;;;;5026503;28;20296;-69
2023/09/26 12:27:34;;;;;;;5.57;3.88;;;26.80;99.90;;;;;;5026588;28;20236;-69
2023/09/26 12:30:01;;;;;;;4.38;3.97;;;26.80;99.90;;;;;;5022515;28;20299;-70
2023/09/26 12:32:28;;;;;;;4.60;4.20;;;26.90;99.90;;;;;;5026051;28;20727;-69
2023/09/26 12:34:56;;;;;;;7.85;4.28;;;27.00;99.90;;;;;;5025996;28;20668;-69
2023/09/26 12:37:24;;;;;;;7.78;4.68;;;27.00;99.90;;;;;;5026079;28;20212;-69
2023/09/26 12:39:51;;;;;;;6.03;4.43;;;27.10;99.90;;;;;;5025644;28;20299;-69
2023/09/26 12:42:18;;;;;;;4.32;4.00;;;27.20;99.90;;;;;;5026089;28;20228;-69
2023/09/26 12:44:45;;;;;;;4.63;4.22;;;27.30;99.90;;;;;;5025716;28;20327;-69